Time;durP1;ratioP1;P1;durP2;ratioP2;P2;SDS_P1;SDS_P2;PMS_P1;PMS_P2;Temp;Humidity;BMP_temperature;BMP_pressure;BME280_temperature;BME280_humidity;BME280_pressure;Samples;Min_cycle;Max_cycle;Signal;HPM_P1;HPM_P2
2022/04/23 00:01:47;;;;;;;17.63;15.52;;;11.40;68.50;;;;;;4886782;29;20053;-89
2022/04/23 00:04:14;;;;;;;17.10;15.40;;;11.40;68.50;;;;;;4886673;29;20056;-90
2022/04/23 00:06:43;;;;;;;18.33;14.68;;;11.40;68.60;;;;;;4887419;29;20108;-90
2022/04/23 00:09:10;;;;;;;16.63;14.13;;;11.50;68.60;;;;;;4897331;29;20529;-89
2022/04/23 00:11:37;;;;;;;17.63;14.02;;;11.50;68.60;;;;;;4882032;29;20063;-90
2022/04/23 00:14:04;;;;;;;16.58;14.88;;;11.50;68.60;;;;;;4897501;29;20120;-89
2022/04/23 00:16:32;;;;;;;17.85;15.30;;;11.50;68.60;;;;;;4889980;29;20057;-89
2022/04/23 00:18:59;;;;;;;16.85;14.45;;;11.50;68.60;;;;;;4886442;29;20045;-90
2022/04/23 00:21:26;;;;;;;16.10;14.50;;;11.60;68.60;;;;;;4885253;29;20061;-90
2022/04/23 00:23:53;;;;;;;16.25;13.30;;;11.60;68.60;;;;;;4881448;29;20048;-89
2022/04/23 00:26:20;;;;;;;17.48;13.55;;;11.60;68.60;;;;;;4884190;29;20052;-89
2022/04/23 00:28:46;;;;;;;16.92;14.27;;;11.60;68.60;;;;;;4886459;29;20122;-90
2022/04/23 00:31:16;;;;;;;18.35;15.25;;;11.70;68.60;;;;;;4886145;29;20061;-90
2022/04/23 00:33:43;;;;;;;19.15;15.10;;;11.70;68.50;;;;;;4886291;29;20143;-90
2022/04/23 00:36:11;;;;;;;17.13;14.98;;;11.70;68.50;;;;;;4882862;29;20517;-90
2022/04/23 00:38:42;;;;;;;18.02;15.48;;;11.70;68.40;;;;;;4881691;29;20491;-90
2022/04/23 00:41:43;;;;;;;17.38;15.27;;;11.70;68.40;;;;;;4896669;29;20049;-90
2022/04/23 00:44:00;;;;;;;20.42;15.35;;;11.80;68.40;;;;;;4896687;29;20104;-89
2022/04/23 00:46:27;;;;;;;20.40;15.30;;;11.80;68.40;;;;;;4890109;29;20053;-90
2022/04/23 00:48:54;;;;;;;17.30;15.13;;;11.80;68.30;;;;;;4886217;29;20057;-90
2022/04/23 00:51:21;;;;;;;18.35;16.10;;;11.80;68.30;;;;;;4884240;29;20048;-90
2022/04/23 00:53:50;;;;;;;21.40;15.65;;;11.80;68.30;;;;;;4881332;29;20072;-89
2022/04/23 00:56:18;;;;;;;18.70;16.23;;;11.80;68.20;;;;;;4884201;29;20049;-91
2022/04/23 00:58:46;;;;;;;20.40;15.38;;;11.90;68.20;;;;;;4886011;29;20049;-91
2022/04/23 01:01:14;;;;;;;17.63;15.32;;;11.90;68.20;;;;;;4886153;29;20049;-90
2022/04/23 01:03:45;;;;;;;17.50;15.68;;;11.90;68.10;;;;;;4885953;29;20695;-90
2022/04/23 01:06:12;;;;;;;19.20;16.63;;;11.90;68.10;;;;;;4882897;29;20048;-89
2022/04/23 01:08:40;;;;;;;21.25;16.25;;;11.90;68.10;;;;;;4896644;29;20057;-90
2022/04/23 01:11:06;;;;;;;22.13;15.90;;;11.90;68.10;;;;;;4898121;29;20049;-90
2022/04/23 01:13:33;;;;;;;21.02;16.55;;;11.90;68.00;;;;;;4900302;29;20112;-90
2022/04/23 01:16:02;;;;;;;18.85;16.40;;;11.90;68.00;;;;;;4897480;29;20122;-89
2022/04/23 01:18:29;;;;;;;18.70;16.23;;;11.90;68.00;;;;;;4888813;29;20144;-90
2022/04/23 01:21:01;;;;;;;19.88;16.15;;;11.90;68.00;;;;;;4900281;29;20101;-90
2022/04/23 01:23:29;;;;;;;19.10;16.65;;;11.90;67.90;;;;;;4885940;29;20533;-90
2022/04/23 01:25:56;;;;;;;18.67;16.10;;;12.00;67.90;;;;;;4889589;29;20049;-91
2022/04/23 01:28:25;;;;;;;20.23;17.52;;;11.90;67.90;;;;;;4889429;29;20053;-91
2022/04/23 01:30:54;;;;;;;19.92;16.65;;;12.00;67.90;;;;;;4889547;29;20044;-89
2022/04/23 01:33:21;;;;;;;18.38;16.17;;;12.00;67.90;;;;;;4887422;29;20470;-90
2022/04/23 01:35:49;;;;;;;18.90;16.98;;;12.00;67.90;;;;;;4884984;29;20049;-89
2022/04/23 01:38:15;;;;;;;18.98;16.92;;;11.90;67.80;;;;;;4885564;29;20559;-90
2022/04/23 01:40:43;;;;;;;21.73;17.95;;;12.00;67.80;;;;;;4897926;29;20056;-89
2022/04/23 01:43:10;;;;;;;20.00;16.73;;;11.90;67.80;;;;;;4894395;29;20165;-90
2022/04/23 01:45:38;;;;;;;21.63;17.20;;;11.90;67.80;;;;;;4889235;29;20092;-89
2022/04/23 01:48:05;;;;;;;22.15;18.65;;;12.00;67.80;;;;;;4885141;29;20051;-89
2022/04/23 01:50:34;;;;;;;20.27;18.25;;;12.00;67.80;;;;;;4896570;29;20581;-89
2022/04/23 01:53:02;;;;;;;22.20;18.50;;;11.90;67.70;;;;;;4899473;29;20056;-90
2022/04/23 01:55:30;;;;;;;21.70;19.33;;;11.90;67.70;;;;;;4892938;29;20053;-88
2022/04/23 01:57:57;;;;;;;22.85;17.95;;;12.00;67.70;;;;;;4888965;29;20482;-90
2022/04/23 02:00:24;;;;;;;23.30;19.25;;;11.90;67.70;;;;;;4887353;29;20048;-89
2022/04/23 02:02:51;;;;;;;21.70;17.58;;;11.90;67.70;;;;;;4884428;29;20061;-89
2022/04/23 02:05:18;;;;;;;23.60;19.73;;;11.90;67.70;;;;;;4886969;29;20483;-91
2022/04/23 02:07:45;;;;;;;21.63;18.52;;;11.90;67.70;;;;;;4888726;29;20064;-89
2022/04/23 02:10:15;;;;;;;21.33;18.00;;;11.90;67.70;;;;;;4888687;29;20048;-90
2022/04/23 02:12:45;;;;;;;20.35;17.85;;;11.90;67.80;;;;;;4888559;29;20056;-90
2022/04/23 02:15:14;;;;;;;19.80;17.70;;;11.90;67.80;;;;;;4885608;29;20049;-90
2022/04/23 02:17:50;;;;;;;24.27;19.25;;;11.90;67.80;;;;;;4884347;29;20053;-89
2022/04/23 02:20:17;;;;;;;21.67;18.33;;;11.90;67.80;;;;;;4885000;29;20131;-89
2022/04/23 02:22:45;;;;;;;22.17;17.88;;;11.90;67.80;;;;;;4888175;29;20650;-91
2022/04/23 02:25:12;;;;;;;21.35;18.85;;;11.90;67.80;;;;;;4893064;29;20048;-90
2022/04/23 02:27:41;;;;;;;20.65;18.45;;;11.90;67.80;;;;;;4898750;29;20476;-90
2022/04/23 02:30:09;;;;;;;21.52;18.58;;;11.90;67.90;;;;;;4884730;29;20570;-89
2022/04/23 02:32:35;;;;;;;23.10;18.25;;;11.90;67.90;;;;;;4884261;29;20053;-90
2022/04/23 02:35:04;;;;;;;21.35;19.08;;;11.90;67.90;;;;;;4887378;29;20049;-90
2022/04/23 02:37:34;;;;;;;22.17;19.10;;;11.90;67.90;;;;;;4888228;29;20061;-88
2022/04/23 02:40:04;;;;;;;20.13;18.02;;;11.90;67.90;;;;;;4888239;29;20102;-89
2022/04/23 02:42:33;;;;;;;21.83;19.45;;;11.90;67.90;;;;;;4886459;29;20053;-90
2022/04/23 02:45:03;;;;;;;21.92;19.20;;;11.90;67.90;;;;;;4883707;29;20048;-90
2022/04/23 02:47:44;;;;;;;20.77;18.55;;;11.90;68.00;;;;;;4884613;29;20168;-90
2022/04/23 02:50:13;;;;;;;25.02;19.40;;;11.90;68.00;;;;;;4898542;29;20057;-89
2022/04/23 02:52:42;;;;;;;22.58;19.60;;;11.80;68.00;;;;;;4890412;29;20057;-89
2022/04/23 02:55:11;;;;;;;25.40;19.17;;;11.80;68.00;;;;;;4887966;29;20045;-89
2022/04/23 02:57:40;;;;;;;21.80;18.80;;;11.90;68.00;;;;;;4887943;29;20048;-90
2022/04/23 03:00:10;;;;;;;23.35;19.15;;;11.80;68.00;;;;;;4884185;29;20116;-90
2022/04/23 03:02:40;;;;;;;21.08;18.83;;;11.90;68.10;;;;;;4883692;29;20053;-89
2022/04/23 03:05:14;;;;;;;21.88;19.25;;;11.90;68.10;;;;;;4897729;29;20135;-90
2022/04/23 03:07:42;;;;;;;;;;;11.80;68.10;;;;;;4890508;29;20113;-89
2022/04/23 03:10:10;;;;;;;21.48;19.10;;;11.80;68.10;;;;;;4887812;29;19924;-90
2022/04/23 03:12:38;;;;;;;21.38;18.95;;;11.80;68.10;;;;;;4887529;29;20048;-89
2022/04/23 03:15:07;;;;;;;23.40;19.77;;;11.80;68.20;;;;;;4883645;29;20048;-89
2022/04/23 03:17:35;;;;;;;22.70;18.65;;;11.80;68.20;;;;;;4883670;29;20407;-89
2022/04/23 03:20:04;;;;;;;21.05;18.25;;;11.80;68.30;;;;;;4897019;29;20048;-89
2022/04/23 03:22:31;;;;;;;23.63;19.17;;;11.80;68.30;;;;;;4890995;29;20549;-89
2022/04/23 03:24:57;;;;;;;21.38;19.08;;;11.80;68.30;;;;;;4887421;29;20057;-90
2022/04/23 03:27:24;;;;;;;22.60;19.60;;;11.80;68.40;;;;;;4886085;29;20125;-90
2022/04/23 03:29:51;;;;;;;29.40;18.73;;;11.80;68.40;;;;;;4883170;29;20561;-91
2022/04/23 03:32:18;;;;;;;21.30;18.20;;;11.80;68.40;;;;;;4885173;29;20057;-89
2022/04/23 03:34:45;;;;;;;22.35;19.23;;;11.80;68.40;;;;;;4886878;29;20056;-89
2022/04/23 03:37:12;;;;;;;21.75;18.65;;;11.80;68.40;;;;;;4886061;29;20471;-89
2022/04/23 03:39:39;;;;;;;21.55;19.33;;;11.80;68.40;;;;;;4887172;29;20115;-90
2022/04/23 03:42:06;;;;;;;23.25;20.77;;;11.70;68.40;;;;;;4883347;29;20056;-89
2022/04/23 03:44:33;;;;;;;21.08;18.92;;;11.80;68.50;;;;;;4883324;29;20158;-89
2022/04/23 03:47:01;;;;;;;22.05;19.08;;;11.70;68.50;;;;;;4897446;29;20053;-90
2022/04/23 03:49:31;;;;;;;22.45;20.05;;;11.70;68.50;;;;;;4891055;29;20057;-90
2022/04/23 03:51:59;;;;;;;22.25;18.58;;;11.70;68.50;;;;;;4886966;29;20052;-89
2022/04/23 03:54:26;;;;;;;23.48;18.98;;;11.70;68.50;;;;;;4884436;29;20048;-90
2022/04/23 03:56:53;;;;;;;20.52;18.33;;;11.70;68.60;;;;;;4881214;29;20056;-89
2022/04/23 03:59:21;;;;;;;22.23;19.95;;;11.70;68.60;;;;;;4884722;29;20116;-91
2022/04/23 04:01:48;;;;;;;22.30;20.00;;;11.70;68.60;;;;;;4886516;29;20049;-90
2022/04/23 04:04:15;;;;;;;20.77;17.92;;;11.70;68.60;;;;;;4886619;29;20120;-89
2022/04/23 04:06:42;;;;;;;23.58;18.98;;;11.70;68.70;;;;;;4886824;29;20044;-90
2022/04/23 04:09:09;;;;;;;23.65;19.35;;;11.60;68.70;;;;;;4883308;29;20063;-90
2022/04/23 04:14:22;;;;;;;21.88;19.38;;;11.60;68.70;;;;;;4882946;29;20086;-90
2022/04/23 04:16:50;;;;;;;20.02;17.92;;;11.60;68.70;;;;;;4885363;29;20060;-89
2022/04/23 04:19:17;;;;;;;20.30;18.20;;;11.60;68.70;;;;;;4891716;29;20107;-90
2022/04/23 04:21:46;;;;;;;20.88;18.77;;;11.50;68.80;;;;;;4896285;29;20107;-90
2022/04/23 04:24:14;;;;;;;21.63;19.42;;;11.50;68.80;;;;;;4883075;29;20048;-89
2022/04/23 04:26:42;;;;;;;21.48;19.20;;;11.50;68.80;;;;;;4881127;29;20415;-89
2022/04/23 04:29:10;;;;;;;20.67;18.50;;;11.40;68.90;;;;;;4896688;29;20052;-89
2022/04/23 04:31:50;;;;;;;21.85;19.50;;;11.40;68.90;;;;;;4896692;29;20076;-89
2022/04/23 04:34:23;;;;;;;21.48;19.27;;;11.40;68.90;;;;;;4891763;29;20056;-91
2022/04/23 04:37:00;;;;;;;22.48;19.38;;;11.40;69.00;;;;;;4886180;29;20519;-91
2022/04/23 04:39:26;;;;;;;21.60;19.13;;;11.30;69.00;;;;;;4884951;29;20048;-90
2022/04/23 04:41:53;;;;;;;22.13;19.30;;;11.30;69.00;;;;;;4881927;29;20053;-90
2022/04/23 04:44:20;;;;;;;21.23;18.98;;;11.20;69.10;;;;;;4884075;29;20053;-91
2022/04/23 04:46:47;;;;;;;22.80;20.10;;;11.20;69.10;;;;;;4895036;29;20058;-90
2022/04/23 04:49:14;;;;;;;24.40;20.50;;;11.20;69.20;;;;;;4892032;29;20072;-89
2022/04/23 04:51:41;;;;;;;20.85;18.08;;;11.10;69.30;;;;;;4886147;29;20116;-90
2022/04/23 04:54:08;;;;;;;22.17;19.33;;;11.10;69.30;;;;;;4882492;29;20112;-90
2022/04/23 04:56:35;;;;;;;20.30;18.20;;;11.00;69.30;;;;;;4881975;29;20057;-90
2022/04/23 04:59:02;;;;;;;20.50;18.27;;;11.00;69.40;;;;;;4885325;29;20061;-90
2022/04/23 05:01:30;;;;;;;21.92;19.63;;;11.00;69.40;;;;;;4885771;29;20045;-91
2022/04/23 05:03:57;;;;;;;22.38;20.08;;;10.90;69.40;;;;;;4885851;29;20119;-90
2022/04/23 05:06:24;;;;;;;21.70;19.05;;;10.90;69.50;;;;;;4884466;29;20399;-89
2022/04/23 05:08:51;;;;;;;21.13;18.85;;;10.90;69.60;;;;;;4896787;29;20057;-89
2022/04/23 05:11:18;;;;;;;22.63;19.75;;;10.90;69.70;;;;;;4884028;29;20057;-89
2022/04/23 05:13:45;;;;;;;25.92;20.60;;;10.80;69.70;;;;;;4885852;29;20403;-91
2022/04/23 05:16:12;;;;;;;21.25;19.10;;;10.70;69.80;;;;;;4884515;29;20514;-90
2022/04/23 05:18:39;;;;;;;22.73;20.33;;;10.70;69.90;;;;;;4886368;29;20044;-89
2022/04/23 05:21:06;;;;;;;22.92;19.02;;;10.70;69.90;;;;;;4896650;29;20099;-90
2022/04/23 05:23:34;;;;;;;22.40;20.20;;;10.60;70.00;;;;;;4882146;29;20053;-90
2022/04/23 05:26:03;;;;;;;22.95;20.50;;;10.60;70.10;;;;;;4896509;29;20049;-90
2022/04/23 05:28:34;;;;;;;22.20;19.90;;;10.60;70.20;;;;;;4889225;29;20061;-90
2022/04/23 05:31:03;;;;;;;23.50;21.02;;;10.60;70.30;;;;;;4885954;29;20104;-88
2022/04/23 05:33:29;;;;;;;21.80;19.48;;;10.60;70.40;;;;;;4885038;29;20053;-90
2022/04/23 05:35:56;;;;;;;23.17;20.55;;;10.60;70.50;;;;;;4896370;29;20045;-89
2022/04/23 05:38:23;;;;;;;22.10;19.80;;;10.60;70.60;;;;;;4883176;29;20467;-89
2022/04/23 05:40:50;;;;;;;23.92;21.35;;;10.60;70.70;;;;;;4885679;29;20081;-91
2022/04/23 05:43:17;;;;;;;26.63;21.15;;;10.60;70.80;;;;;;4885207;29;20531;-89
2022/04/23 05:45:44;;;;;;;23.85;21.42;;;10.60;70.90;;;;;;4885685;29;20113;-89
2022/04/23 05:48:11;;;;;;;24.20;21.60;;;10.50;70.90;;;;;;4882381;29;20407;-89
2022/04/23 05:50:38;;;;;;;23.27;20.77;;;10.60;71.00;;;;;;4881530;29;20053;-90
2022/04/23 05:53:06;;;;;;;24.15;21.60;;;10.60;71.10;;;;;;4884922;29;20582;-91
2022/04/23 05:55:34;;;;;;;24.75;21.27;;;10.60;71.20;;;;;;4894462;29;20049;-90
2022/04/23 05:58:01;;;;;;;25.15;20.65;;;10.60;71.20;;;;;;4895814;29;20547;-91
2022/04/23 06:00:28;;;;;;;23.25;20.45;;;10.60;71.30;;;;;;4887898;29;20463;-90
2022/04/23 06:02:55;;;;;;;25.65;21.38;;;10.60;71.30;;;;;;4899411;29;20124;-90
2022/04/23 06:05:22;;;;;;;23.48;21.00;;;10.60;71.40;;;;;;4900178;29;20052;-90
2022/04/23 06:07:49;;;;;;;22.77;20.40;;;10.60;71.40;;;;;;4899498;29;20112;-91
2022/04/23 06:10:16;;;;;;;22.40;20.10;;;10.70;71.50;;;;;;4899166;29;20060;-90
2022/04/23 06:12:43;;;;;;;23.05;20.30;;;10.70;71.50;;;;;;4898031;29;20048;-89
2022/04/23 06:15:10;;;;;;;24.05;21.40;;;10.80;71.60;;;;;;4885298;29;20112;-91
2022/04/23 06:17:37;;;;;;;22.50;20.10;;;10.80;71.60;;;;;;4883330;29;20097;-90
2022/04/23 06:20:05;;;;;;;23.50;20.35;;;10.80;71.60;;;;;;4899751;29;20125;-91
2022/04/23 06:22:32;;;;;;;22.98;20.05;;;10.90;71.60;;;;;;4899248;29;20056;-90
2022/04/23 06:24:59;;;;;;;22.35;19.45;;;10.90;71.70;;;;;;4896164;29;20049;-92
2022/04/23 06:27:26;;;;;;;22.35;19.98;;;10.90;71.70;;;;;;4886737;29;20052;-91
2022/04/23 06:29:53;;;;;;;22.73;19.42;;;10.90;71.70;;;;;;4884101;29;20049;-90
2022/04/23 06:32:20;;;;;;;21.80;19.55;;;11.00;71.70;;;;;;4899516;29;20101;-90
2022/04/23 06:34:47;;;;;;;20.60;18.50;;;11.00;71.70;;;;;;4890076;29;20048;-90
2022/04/23 06:37:14;;;;;;;22.42;19.63;;;11.10;71.60;;;;;;4888052;29;20069;-91
2022/04/23 06:39:40;;;;;;;22.95;20.27;;;11.20;71.60;;;;;;4888047;29;20056;-91
2022/04/23 06:42:08;;;;;;;23.08;19.50;;;11.20;71.50;;;;;;4884322;29;20518;-92
2022/04/23 06:44:35;;;;;;;23.00;19.48;;;11.20;71.50;;;;;;4884022;29;20060;-92
2022/04/23 06:47:03;;;;;;;21.13;18.88;;;11.30;71.40;;;;;;4887269;29;20049;-91
2022/04/23 06:49:30;;;;;;;22.02;19.20;;;11.40;71.40;;;;;;4894938;29;20056;-92
2022/04/23 06:51:57;;;;;;;23.27;19.15;;;11.40;71.30;;;;;;4896318;29;20108;-91
2022/04/23 06:54:24;;;;;;;21.92;19.63;;;11.40;71.20;;;;;;4886254;29;20052;-90
2022/04/23 06:56:52;;;;;;;23.38;19.88;;;11.50;71.20;;;;;;4898290;29;20053;-88
2022/04/23 06:59:19;;;;;;;21.42;19.13;;;11.50;71.10;;;;;;4885916;29;20057;-92
2022/04/23 07:01:46;;;;;;;20.80;18.58;;;11.60;71.00;;;;;;4896555;29;20048;-90
2022/04/23 07:04:13;;;;;;;22.50;18.33;;;11.60;70.90;;;;;;4893604;29;20057;-89
2022/04/23 07:06:40;;;;;;;27.77;19.42;;;11.70;70.90;;;;;;4887942;29;20048;-90
2022/04/23 07:09:07;;;;;;;21.95;19.52;;;11.80;70.80;;;;;;4883435;29;20399;-92
2022/04/23 07:11:34;;;;;;;24.05;19.35;;;11.80;70.70;;;;;;4898862;29;20048;-88
2022/04/23 07:14:01;;;;;;;21.02;18.45;;;11.90;70.70;;;;;;4898114;29;20120;-89
2022/04/23 07:16:28;;;;;;;22.38;19.73;;;11.90;70.60;;;;;;4898717;29;20207;-92
2022/04/23 07:18:55;;;;;;;21.50;19.30;;;11.90;70.50;;;;;;4904243;29;20057;-91
2022/04/23 07:21:22;;;;;;;24.63;19.25;;;11.90;70.40;;;;;;4885749;29;20058;-91
2022/04/23 07:24:05;;;;;;;22.45;19.23;;;12.00;70.30;;;;;;4883718;29;20057;-92
2022/04/23 07:26:34;;;;;;;23.90;18.58;;;12.00;70.20;;;;;;4898753;29;20048;-91
2022/04/23 07:29:07;;;;;;;20.85;18.60;;;12.10;70.10;;;;;;4898827;29;20139;-92
2022/04/23 07:31:36;;;;;;;22.77;18.83;;;12.10;70.00;;;;;;4890332;29;20045;-91
2022/04/23 07:39:36;;;;;;;23.30;18.08;;;12.20;69.80;;;;;;4897844;29;20589;-91
2022/04/23 07:42:06;;;;;;;19.90;17.58;;;12.30;69.80;;;;;;4883204;29;20528;-92
2022/04/23 07:44:33;;;;;;;19.60;17.50;;;12.30;69.70;;;;;;4894788;29;20088;-92
2022/04/23 07:47:00;;;;;;;21.80;18.75;;;12.40;69.70;;;;;;4898054;29;20075;-94
2022/04/23 07:49:27;;;;;;;20.40;17.63;;;12.40;69.60;;;;;;4898015;29;20052;-92
2022/04/23 07:51:54;;;;;;;21.73;17.80;;;12.40;69.60;;;;;;4898104;29;20052;-91
2022/04/23 07:54:21;;;;;;;19.58;17.55;;;12.50;69.50;;;;;;4897838;29;20061;-92
2022/04/23 07:56:49;;;;;;;21.95;16.75;;;12.50;69.40;;;;;;4897885;29;20056;-92
2022/04/23 07:59:16;;;;;;;18.63;16.25;;;12.60;69.30;;;;;;4892314;29;20048;-93
2022/04/23 08:01:43;;;;;;;19.70;17.58;;;12.70;69.20;;;;;;4897613;29;20459;-93
2022/04/23 08:04:11;;;;;;;17.42;15.70;;;12.70;69.10;;;;;;4897929;29;20530;-92
2022/04/23 08:06:38;;;;;;;20.58;16.73;;;12.80;69.00;;;;;;4898205;29;20447;-92
2022/04/23 08:09:05;;;;;;;20.63;16.27;;;12.90;68.80;;;;;;4899220;29;20052;-95
2022/04/23 08:11:32;;;;;;;18.35;16.42;;;12.90;68.70;;;;;;4900055;29;20100;-94
2022/04/23 08:13:59;;;;;;;19.80;17.70;;;12.90;68.60;;;;;;4899337;29;20064;-95
2022/04/23 08:16:29;;;;;;;18.88;16.77;;;13.00;68.40;;;;;;4885796;29;20052;-95
2022/04/23 08:18:57;;;;;;;18.52;16.52;;;13.00;68.20;;;;;;4889062;29;20057;-96
2022/04/23 08:21:24;;;;;;;20.40;17.13;;;13.10;68.10;;;;;;4900359;29;20048;-95
2022/04/23 08:23:51;;;;;;;19.73;17.65;;;13.20;67.90;;;;;;4899564;29;20057;-95
2022/04/23 08:26:18;;;;;;;19.05;16.95;;;13.30;67.80;;;;;;4900557;29;20048;-93
2022/04/23 08:31:31;;;;;;;20.95;17.70;;;13.40;67.60;;;;;;4900636;29;20052;-94
2022/04/23 08:33:58;;;;;;;18.20;15.80;;;13.40;67.50;;;;;;4909936;29;20516;-94
2022/04/23 08:36:36;;;;;;;17.73;15.82;;;13.40;67.30;;;;;;4901879;29;20052;-95
2022/04/23 08:39:05;;;;;;;20.67;17.08;;;13.50;67.20;;;;;;4887992;29;20052;-96
2022/04/23 08:41:34;;;;;;;18.45;16.48;;;13.60;67.10;;;;;;4883541;29;20056;-92
2022/04/23 08:44:07;;;;;;;17.33;15.45;;;13.60;67.00;;;;;;4896094;29;20526;-95
2022/04/23 08:46:39;;;;;;;21.92;17.00;;;13.60;66.80;;;;;;4899761;29;20111;-93
2022/04/23 08:49:14;;;;;;;17.98;15.52;;;13.70;66.70;;;;;;4900185;29;20087;-95
2022/04/23 08:51:45;;;;;;;20.42;15.48;;;13.80;66.60;;;;;;4907439;29;20065;-94
2022/04/23 08:54:13;;;;;;;20.42;16.02;;;13.80;66.50;;;;;;4909280;29;20056;-95
2022/04/23 08:56:42;;;;;;;17.13;14.50;;;13.90;66.40;;;;;;4898057;29;20052;-93
2022/04/23 08:59:12;;;;;;;17.52;15.25;;;13.90;66.30;;;;;;4881013;29;20064;-92
2022/04/23 09:01:46;;;;;;;19.95;15.13;;;14.00;66.10;;;;;;4890736;29;20128;-94
2022/04/23 09:04:13;;;;;;;17.70;15.80;;;14.10;66.00;;;;;;4900543;29;20499;-91
2022/04/23 09:06:42;;;;;;;16.52;14.70;;;14.10;65.90;;;;;;4896113;29;20594;-91
2022/04/23 09:09:21;;;;;;;15.90;14.18;;;14.20;65.80;;;;;;4882696;29;20045;-91
2022/04/23 09:11:54;;;;;;;17.85;15.07;;;14.20;65.70;;;;;;4896903;29;20049;-92
2022/04/23 09:14:31;;;;;;;20.37;15.37;;;14.30;65.50;;;;;;4882425;29;20057;-93
2022/04/23 09:25:35;;;;;;;16.45;14.75;;;14.60;64.90;;;;;;4885846;29;20053;-89
2022/04/23 09:28:18;;;;;;;19.08;15.60;;;14.70;64.70;;;;;;4885874;29;20045;-90
2022/04/23 09:30:48;;;;;;;16.70;14.82;;;14.80;64.60;;;;;;4885909;29;20072;-90
2022/04/23 09:33:16;;;;;;;17.05;14.07;;;14.80;64.40;;;;;;4886657;29;20532;-89
2022/04/23 09:35:59;;;;;;;16.52;14.23;;;14.90;64.30;;;;;;4884600;29;20562;-90
2022/04/23 09:38:27;;;;;;;17.27;14.40;;;14.90;64.10;;;;;;4885868;29;20049;-91
2022/04/23 09:41:17;;;;;;;16.75;14.98;;;15.00;64.00;;;;;;4899006;29;20561;-89
2022/04/23 09:43:45;;;;;;;17.98;15.95;;;15.00;63.90;;;;;;4891333;29;20164;-89
2022/04/23 09:46:12;;;;;;;23.20;15.85;;;15.10;63.80;;;;;;4889194;29;20124;-90
2022/04/23 09:48:43;;;;;;;16.77;15.07;;;15.20;63.60;;;;;;4889309;29;20045;-89
2022/04/23 09:51:26;;;;;;;18.10;15.02;;;15.20;63.50;;;;;;4885285;29;20060;-89
2022/04/23 09:53:54;;;;;;;17.77;14.27;;;15.30;63.40;;;;;;4884614;29;20071;-89
2022/04/23 09:56:23;;;;;;;17.83;16.00;;;15.30;63.30;;;;;;4886904;29;20064;-89
2022/04/23 09:58:51;;;;;;;23.55;17.08;;;15.40;63.10;;;;;;4889117;29;20045;-89
2022/04/23 10:01:20;;;;;;;19.05;13.60;;;15.40;62.90;;;;;;4889065;29;20053;-92
2022/04/23 10:03:53;;;;;;;18.05;13.45;;;15.50;62.80;;;;;;4888908;29;20064;-91
2022/04/23 10:06:22;;;;;;;34.53;15.52;;;15.60;62.60;;;;;;4887043;29;20053;-92
2022/04/23 10:08:57;;;;;;;28.45;14.60;;;15.70;62.50;;;;;;4900020;29;20049;-92
2022/04/23 10:11:30;;;;;;;25.35;13.40;;;15.70;62.40;;;;;;4900887;29;20053;-93
2022/04/23 10:14:06;;;;;;;19.38;16.27;;;15.80;62.20;;;;;;4900575;29;20484;-94
2022/04/23 10:16:35;;;;;;;21.30;16.25;;;15.90;62.10;;;;;;4901611;29;20056;-96
2022/04/23 10:19:02;;;;;;;24.23;15.25;;;16.00;62.00;;;;;;4901662;29;20048;-96
2022/04/23 10:21:39;;;;;;;27.38;15.63;;;16.00;61.80;;;;;;4898540;29;20120;-93
2022/04/23 10:24:21;;;;;;;29.70;15.38;;;16.10;61.70;;;;;;4887108;29;20055;-93
2022/04/23 10:26:50;;;;;;;21.92;13.90;;;16.20;61.60;;;;;;4906126;29;20052;-94
2022/04/23 10:29:22;;;;;;;22.42;14.32;;;16.30;61.50;;;;;;4907605;29;20104;-95
2022/04/23 10:32:09;;;;;;;21.92;14.50;;;16.30;61.40;;;;;;4906234;29;20048;-95
2022/04/23 10:34:37;;;;;;;31.08;13.93;;;16.40;61.20;;;;;;4908920;29;20052;-96
2022/04/23 10:37:17;;;;;;;21.60;12.43;;;16.50;61.10;;;;;;4907553;29;20060;-92
2022/04/23 10:40:05;;;;;;;29.33;13.75;;;16.50;60.90;;;;;;4904951;29;20056;-93
2022/04/23 10:42:32;;;;;;;36.22;13.05;;;16.60;60.80;;;;;;4892287;29;20474;-93
2022/04/23 10:45:06;;;;;;;39.50;15.77;;;16.60;60.60;;;;;;4901848;29;20056;-93
2022/04/23 10:47:34;;;;;;;;;;;16.70;60.50;;;;;;4901867;29;20049;-95
2022/04/23 10:52:41;;;;;;;36.88;15.70;;;16.80;60.30;;;;;;4907981;29;20056;-96
2022/04/23 10:55:10;;;;;;;32.05;14.70;;;16.80;60.10;;;;;;4905838;29;20100;-95
2022/04/23 10:57:40;;;;;;;29.85;16.55;;;16.80;60.10;;;;;;4901860;29;20571;-94
2022/04/23 11:00:11;;;;;;;33.70;14.43;;;16.90;60.00;;;;;;4903262;29;20100;-93
2022/04/23 11:02:39;;;;;;;25.73;14.52;;;16.90;59.80;;;;;;4904441;29;20055;-96
2022/04/23 11:14:39;;;;;;;33.03;15.07;;;17.00;59.60;;;;;;4898998;29;20061;-96
2022/04/23 11:17:07;;;;;;;22.88;14.73;;;17.00;59.60;;;;;;4917949;29;20060;-95
2022/04/23 11:19:34;;;;;;;26.83;14.48;;;17.00;59.60;;;;;;4985259;23;20053;-95
2022/04/23 11:22:02;;;;;;;27.08;13.60;;;17.10;59.60;;;;;;4889252;29;20128;-96
2022/04/23 11:24:30;;;;;;;18.88;14.23;;;17.10;59.50;;;;;;4889029;29;20086;-95
2022/04/23 11:26:58;;;;;;;19.35;12.95;;;17.10;59.50;;;;;;4887588;29;20082;-96
2022/04/23 11:29:27;;;;;;;21.65;14.60;;;17.10;59.40;;;;;;4888795;29;20057;-96
2022/04/23 11:31:57;;;;;;;18.10;13.90;;;17.20;59.40;;;;;;4887464;29;20118;-96
2022/04/23 11:34:27;;;;;;;20.20;13.18;;;17.20;59.30;;;;;;4884949;29;20549;-96
2022/04/23 11:36:55;;;;;;;19.30;13.73;;;17.30;59.30;;;;;;4882700;29;20045;-96
2022/04/23 11:39:30;;;;;;;15.68;12.70;;;17.30;59.20;;;;;;4881979;29;20056;-96
2022/04/23 11:41:58;;;;;;;22.83;14.75;;;17.30;59.10;;;;;;4887547;29;20033;-95
2022/04/23 11:47:15;;;;;;;18.38;14.80;;;17.40;59.10;;;;;;4886865;29;20045;-95
2022/04/23 11:49:42;;;;;;;16.90;14.73;;;17.40;59.00;;;;;;4891463;29;20065;-95
2022/04/23 11:52:13;;;;;;;23.38;15.57;;;17.40;58.90;;;;;;4890003;29;20116;-96
2022/04/23 11:54:45;;;;;;;16.70;14.48;;;17.40;58.90;;;;;;4886990;29;20059;-95
2022/04/23 11:57:16;;;;;;;17.13;13.65;;;17.40;58.80;;;;;;4886162;29;20060;-96
2022/04/23 11:59:49;;;;;;;20.65;13.93;;;17.40;58.80;;;;;;4882322;29;20064;-96
2022/04/23 12:02:21;;;;;;;17.13;13.43;;;17.50;58.80;;;;;;4882995;29;20057;-95
2022/04/23 12:04:50;;;;;;;17.67;13.63;;;17.50;58.80;;;;;;4882983;29;20045;-95
2022/04/23 12:07:18;;;;;;;17.42;13.55;;;17.50;58.70;;;;;;4881644;29;20431;-96
2022/04/23 12:09:56;;;;;;;20.85;13.70;;;17.60;58.70;;;;;;4883356;29;20059;-95
2022/04/23 12:12:30;;;;;;;19.55;14.55;;;17.60;58.70;;;;;;4876271;29;20061;-95
2022/04/23 12:15:06;;;;;;;19.30;13.98;;;17.60;58.60;;;;;;4863511;29;20109;-94
2022/04/23 12:17:46;;;;;;;20.48;13.85;;;17.70;58.70;;;;;;4863775;29;20487;-93
2022/04/23 12:20:15;;;;;;;21.45;16.15;;;17.70;58.60;;;;;;4861849;29;20587;-95
2022/04/23 12:22:54;;;;;;;21.98;16.48;;;17.70;58.60;;;;;;4874533;29;20124;-96
2022/04/23 12:25:21;;;;;;;29.70;16.60;;;17.80;58.50;;;;;;4880641;29;20113;-95
2022/04/23 12:42:10;;;;;;;169.00;23.85;;;17.90;58.30;;;;;;4885442;29;20061;-95
2022/04/23 12:44:46;;;;;;;152.98;21.08;;;18.00;58.30;;;;;;4880001;29;20522;-94
2022/04/23 12:47:18;;;;;;;125.07;21.48;;;18.00;58.20;;;;;;4880914;29;20065;-94
2022/04/23 12:49:48;;;;;;;75.45;19.05;;;18.00;58.10;;;;;;4882124;29;20105;-94
2022/04/23 12:52:21;;;;;;;78.30;18.55;;;18.10;58.10;;;;;;4881983;29;20056;-95
2022/04/23 12:55:09;;;;;;;57.25;19.25;;;18.10;58.10;;;;;;4878703;29;20470;-94
2022/04/23 12:57:36;;;;;;;39.15;19.02;;;18.10;58.00;;;;;;4880885;29;20049;-94
2022/04/23 13:00:04;;;;;;;53.47;20.08;;;18.10;58.00;;;;;;4863223;29;20049;-95
2022/04/23 13:02:36;;;;;;;51.65;18.17;;;18.20;58.00;;;;;;4861159;29;20049;-94
2022/04/23 13:05:08;;;;;;;42.17;15.45;;;18.20;57.90;;;;;;4878871;29;20057;-93
2022/04/23 13:10:21;;;;;;;39.28;17.10;;;18.30;57.90;;;;;;4883479;29;20045;-94
2022/04/23 13:12:48;;;;;;;44.97;15.25;;;18.30;57.90;;;;;;4882570;29;20053;-93
2022/04/23 13:15:18;;;;;;;28.98;15.02;;;18.40;57.80;;;;;;4882422;29;20049;-92
2022/04/23 13:17:46;;;;;;;31.05;14.50;;;18.40;57.70;;;;;;4884672;29;20105;-96
2022/04/23 13:20:15;;;;;;;48.00;14.63;;;18.40;57.60;;;;;;4882231;29;20056;-92
2022/04/23 13:22:45;;;;;;;70.00;16.10;;;18.40;57.60;;;;;;4881811;29;20065;-94
2022/04/23 13:25:18;;;;;;;327.30;26.75;;;18.50;57.50;;;;;;4882488;29;20052;-95
2022/04/23 13:27:45;;;;;;;92.28;16.95;;;18.50;57.50;;;;;;4882121;29;20053;-93
2022/04/23 13:30:14;;;;;;;114.35;16.70;;;18.60;57.40;;;;;;4881755;29;20049;-93